createdAt,value
2017-11-07T00:00:13.419Z,4.37
2017-11-07T00:01:23.995Z,4.23
2017-11-07T00:02:34.492Z,4.18
2017-11-07T00:03:44.964Z,4.12
2017-11-07T00:04:55.421Z,4.23
2017-11-07T00:06:05.861Z,4.2
2017-11-07T00:07:16.351Z,4.2
2017-11-07T00:08:26.818Z,4.23
2017-11-07T00:09:37.263Z,4.33
2017-11-07T00:10:47.505Z,4.34
2017-11-07T00:11:57.987Z,4.27
2017-11-07T00:13:08.556Z,4.33
2017-11-07T00:14:19.005Z,4.3
2017-11-07T00:15:29.628Z,4.31
2017-11-07T00:16:39.787Z,4.4
2017-11-07T00:17:50.244Z,4.4
2017-11-07T00:19:00.742Z,4.47
2017-11-07T00:20:11.178Z,4.38
2017-11-07T00:21:21.707Z,4.43
2017-11-07T00:22:32.177Z,4.41
2017-11-07T00:23:42.646Z,4.38
2017-11-07T00:24:53.111Z,4.33
2017-11-07T00:26:04.549Z,4.36
2017-11-07T00:27:15.024Z,4.31
2017-11-07T00:28:25.516Z,4.2
2017-11-07T00:29:35.993Z,4.18
2017-11-07T00:30:46.422Z,4.18
2017-11-07T00:31:57.074Z,4.11
2017-11-07T00:33:07.204Z,4.16
2017-11-07T00:34:17.684Z,4.12
2017-11-07T00:35:27.723Z,4.19
2017-11-07T00:36:38.287Z,4.04
2017-11-07T00:37:48.723Z,4.15
2017-11-07T00:38:59.258Z,4.19
2017-11-07T00:40:09.921Z,4.15
2017-11-07T00:41:20.119Z,4.19
2017-11-07T00:42:30.221Z,4.15
2017-11-07T00:43:40.678Z,4.04
2017-11-07T00:44:51.140Z,4.09
2017-11-07T00:46:01.659Z,4.09
2017-11-07T00:47:12.232Z,4.12
2017-11-07T00:48:22.706Z,4.22
2017-11-07T00:49:33.163Z,4.18
2017-11-07T00:50:43.595Z,4.16
2017-11-07T00:51:53.724Z,4.2
2017-11-07T00:53:03.861Z,4.13
2017-11-07T00:54:14.295Z,4.25
2017-11-07T00:55:24.923Z,4.22
2017-11-07T00:56:35.561Z,4.25
2017-11-07T00:57:46.135Z,4.23
2017-11-07T00:58:56.554Z,4.22
2017-11-07T01:00:06.714Z,4.22
2017-11-07T01:01:17.148Z,4.28
2017-11-07T01:02:27.711Z,4.3
2017-11-07T01:03:37.548Z,4.31
2017-11-07T01:04:47.562Z,4.3
2017-11-07T01:05:57.658Z,4.28
2017-11-07T01:07:08.129Z,4.23
2017-11-07T01:08:18.270Z,4.19
2017-11-07T01:09:28.721Z,4.2
2017-11-07T01:10:39.232Z,4.2
2017-11-07T01:11:49.676Z,4.11
2017-11-07T01:12:59.947Z,4.13
2017-11-07T01:14:10.384Z,4.23
2017-11-07T01:15:21.064Z,4.08
2017-11-07T01:16:31.516Z,4.15
2017-11-07T01:17:41.999Z,4.12
2017-11-07T01:18:52.425Z,4.11
2017-11-07T01:20:02.990Z,4.18
2017-11-07T01:21:13.453Z,4.15
2017-11-07T01:22:23.918Z,4.25
2017-11-07T01:23:33.939Z,4.25
2017-11-07T01:24:44.389Z,4.25
2017-11-07T01:25:54.855Z,4.22
2017-11-07T01:27:05.303Z,4.2
2017-11-07T01:28:15.737Z,4.2
2017-11-07T01:29:26.268Z,4.16
2017-11-07T01:30:36.383Z,4.12
2017-11-07T01:31:46.506Z,4.23
2017-11-07T01:32:56.959Z,4.2
2017-11-07T01:34:07.431Z,4.13
2017-11-07T01:35:17.902Z,4.23
2017-11-07T01:36:28.374Z,4.2
2017-11-07T01:37:39.018Z,4.15
2017-11-07T01:38:49.176Z,4.19
2017-11-07T01:39:59.647Z,4.11
2017-11-07T01:41:10.096Z,4.13
2017-11-07T01:42:20.549Z,4.11
2017-11-07T01:43:30.688Z,4.12
2017-11-07T01:44:41.142Z,4.2
2017-11-07T01:45:51.604Z,4.16
2017-11-07T01:47:02.046Z,4.01
2017-11-07T01:48:12.530Z,4.03
2017-11-07T01:49:22.958Z,4.13
2017-11-07T01:50:33.393Z,4.16
2017-11-07T01:51:43.927Z,4.22
2017-11-07T01:52:54.374Z,4.08
2017-11-07T01:54:04.800Z,4.15
2017-11-07T01:55:15.254Z,4.09
2017-11-07T01:56:25.393Z,4.13
2017-11-07T01:57:35.850Z,4.16
2017-11-07T01:58:45.971Z,4.2
2017-11-07T01:59:56.686Z,4.22
2017-11-07T02:01:07.142Z,4.19
2017-11-07T02:02:17.155Z,4.27
2017-11-07T02:03:27.589Z,4.28
2017-11-07T02:04:38.065Z,4.36
2017-11-07T02:05:48.488Z,4.27
2017-11-07T02:06:58.640Z,4.22
2017-11-07T02:08:08.832Z,4.27
2017-11-07T02:09:19.318Z,4.28
2017-11-07T02:10:29.793Z,4.38
2017-11-07T02:11:39.897Z,4.23
2017-11-07T02:12:50.340Z,4.31
2017-11-07T02:14:00.481Z,4.34
2017-11-07T02:15:10.931Z,4.22
2017-11-07T02:16:21.061Z,4.27
2017-11-07T02:17:30.857Z,4.25
2017-11-07T02:18:41.292Z,4.2
2017-11-07T02:19:51.710Z,4.2
2017-11-07T02:21:02.423Z,4.18
2017-11-07T02:22:12.849Z,4.13
2017-11-07T02:23:23.287Z,4.16
2017-11-07T02:24:33.777Z,4.19
2017-11-07T02:25:44.228Z,4
2017-11-07T02:26:54.727Z,4.04
2017-11-07T02:28:05.158Z,4
2017-11-07T02:29:15.673Z,4.03
2017-11-07T02:30:26.125Z,3.97
2017-11-07T02:31:36.641Z,4.04
2017-11-07T02:32:46.777Z,4.05
2017-11-07T02:33:57.241Z,4.03
2017-11-07T02:35:07.733Z,3.94
2017-11-07T02:36:18.201Z,3.91
2017-11-07T02:37:28.724Z,3.94
2017-11-07T02:38:39.171Z,4
2017-11-07T02:39:49.857Z,4.05
2017-11-07T02:41:00.321Z,4.03
2017-11-07T02:42:10.551Z,4.03
2017-11-07T02:43:20.685Z,4.01
2017-11-07T02:44:31.121Z,4.11
2017-11-07T02:45:41.260Z,4.05
2017-11-07T02:46:51.703Z,4.13
2017-11-07T02:48:02.182Z,4.2
2017-11-07T02:49:12.655Z,4.28
2017-11-07T02:50:23.121Z,4.19
2017-11-07T02:51:33.257Z,4.34
2017-11-07T02:52:43.752Z,4.37
2017-11-07T02:53:53.817Z,4.31
2017-11-07T02:55:04.251Z,4.41
2017-11-07T02:56:14.806Z,4.43
2017-11-07T02:57:25.250Z,4.47
2017-11-07T02:58:35.690Z,4.46
2017-11-07T02:59:46.222Z,4.46
2017-11-07T03:00:56.700Z,4.46
2017-11-07T03:02:07.140Z,4.43
2017-11-07T03:03:17.275Z,4.47
2017-11-07T03:04:27.815Z,4.43
2017-11-07T03:05:38.285Z,4.52
2017-11-07T03:06:48.780Z,4.59
2017-11-07T03:07:58.846Z,4.49
2017-11-07T03:09:09.284Z,4.55
2017-11-07T03:10:19.745Z,4.5
2017-11-07T03:11:29.775Z,4.6
2017-11-07T03:12:40.258Z,4.6
2017-11-07T03:13:50.693Z,4.53
2017-11-07T03:15:00.791Z,4.5
2017-11-07T03:16:11.253Z,4.56
2017-11-07T03:17:21.894Z,4.52
2017-11-07T03:18:32.024Z,4.53
2017-11-07T03:19:42.511Z,4.49
2017-11-07T03:20:52.945Z,4.43
2017-11-07T03:22:03.398Z,4.49
2017-11-07T03:23:14.203Z,4.49
2017-11-07T03:24:24.662Z,4.52
2017-11-07T03:25:35.251Z,4.53
2017-11-07T03:26:44.939Z,4.56
2017-11-07T03:27:55.414Z,4.53
2017-11-07T03:29:05.952Z,4.65
2017-11-07T03:30:16.060Z,4.62
2017-11-07T03:31:26.499Z,4.46
2017-11-07T03:32:36.965Z,4.56
2017-11-07T03:33:46.978Z,4.53
2017-11-07T03:34:57.442Z,4.49
2017-11-07T03:36:08.045Z,4.37
2017-11-07T03:37:18.479Z,4.4
2017-11-07T03:38:28.586Z,4.3
2017-11-07T03:39:39.030Z,4.25
2017-11-07T03:40:49.465Z,4.28
2017-11-07T03:41:59.924Z,4.38
2017-11-07T03:43:10.369Z,4.38
2017-11-07T03:44:20.818Z,4.37
2017-11-07T03:45:31.294Z,4.38
2017-11-07T03:46:41.755Z,4.23
2017-11-07T03:47:52.235Z,4.25
2017-11-07T03:49:02.674Z,4.33
2017-11-07T03:50:13.368Z,4.3
2017-11-07T03:51:23.839Z,4.27
2017-11-07T03:52:34.284Z,4.31
2017-11-07T03:53:44.879Z,4.34
2017-11-07T03:54:55.328Z,4.23
2017-11-07T03:56:05.785Z,4.27
2017-11-07T03:57:16.249Z,4.22
2017-11-07T03:58:26.375Z,4.22
2017-11-07T03:59:36.821Z,4.22
2017-11-07T04:00:47.261Z,4.12
2017-11-07T04:01:57.363Z,4.18
2017-11-07T04:03:07.476Z,4.16
2017-11-07T04:04:17.958Z,4.11
2017-11-07T04:05:28.519Z,4.15
2017-11-07T04:06:38.949Z,4.15
2017-11-07T04:07:49.416Z,4.03
2017-11-07T04:08:59.994Z,3.97
2017-11-07T04:10:10.481Z,3.97
2017-11-07T04:11:20.945Z,3.94
2017-11-07T04:12:31.369Z,3.87
2017-11-07T04:13:41.807Z,3.94
2017-11-07T04:14:52.255Z,3.91
2017-11-07T04:16:02.759Z,3.87
2017-11-07T04:17:13.224Z,3.9
2017-11-07T04:18:23.662Z,3.98
2017-11-07T04:19:34.579Z,3.94
2017-11-07T04:20:45.017Z,4.03
2017-11-07T04:21:55.483Z,4.04
2017-11-07T04:23:05.927Z,4.08
2017-11-07T04:24:16.443Z,4.11
2017-11-07T04:25:26.910Z,4.15
2017-11-07T04:26:37.030Z,4.09
2017-11-07T04:27:47.467Z,4.23
2017-11-07T04:28:57.500Z,4.19
2017-11-07T04:30:07.978Z,4.09
2017-11-07T04:31:18.393Z,4.18
2017-11-07T04:32:28.824Z,4.08
2017-11-07T04:33:39.273Z,4.12
2017-11-07T04:34:49.714Z,4.08
2017-11-07T04:36:00.398Z,4.15
2017-11-07T04:37:10.884Z,4.12
2017-11-07T04:38:20.725Z,4.16
2017-11-07T04:39:30.954Z,4.2
2017-11-07T04:40:41.394Z,4.23
2017-11-07T04:41:51.894Z,4.3
2017-11-07T04:43:02.330Z,4.23
2017-11-07T04:44:12.775Z,4.2
2017-11-07T04:45:23.247Z,4.12
2017-11-07T04:46:33.357Z,4.22
2017-11-07T04:47:43.496Z,4.13
2017-11-07T04:48:53.957Z,4.19
2017-11-07T04:50:04.438Z,4.19
2017-11-07T04:51:14.877Z,4.12
2017-11-07T04:52:25.340Z,4.22
2017-11-07T04:53:35.991Z,4.3
2017-11-07T04:54:46.123Z,4.27
2017-11-07T04:55:56.561Z,4.23
2017-11-07T04:57:07.009Z,4.25
2017-11-07T04:58:17.495Z,4.27
2017-11-07T04:59:27.921Z,4.19
2017-11-07T05:00:38.373Z,4.25
2017-11-07T05:01:48.802Z,4.15
2017-11-07T05:02:59.337Z,4.22
2017-11-07T05:04:09.765Z,4.3
2017-11-07T05:05:20.230Z,4.27
2017-11-07T05:06:30.696Z,4.18
2017-11-07T05:07:40.719Z,4.19
2017-11-07T05:08:50.826Z,4.11
2017-11-07T05:10:01.309Z,4
2017-11-07T05:11:11.879Z,4.01
2017-11-07T05:12:22.338Z,3.94
2017-11-07T05:13:32.773Z,3.93
2017-11-07T05:14:43.254Z,3.97
2017-11-07T05:15:53.433Z,3.91
2017-11-07T05:17:04.009Z,3.97
2017-11-07T05:18:14.055Z,4.03
2017-11-07T05:19:24.688Z,4
2017-11-07T05:20:35.323Z,3.95
2017-11-07T05:21:45.778Z,3.94
2017-11-07T05:22:56.225Z,3.97
2017-11-07T05:24:06.697Z,4.01
2017-11-07T05:25:16.922Z,4.05
2017-11-07T05:26:27.051Z,4
2017-11-07T05:27:37.500Z,4.15
2017-11-07T05:28:47.691Z,4.12
2017-11-07T05:29:58.303Z,4.18
2017-11-07T05:31:08.861Z,4.23
2017-11-07T05:32:19.308Z,4.16
2017-11-07T05:33:30.010Z,4
2017-11-07T05:34:40.507Z,4.01
2017-11-07T05:35:50.947Z,4.13
2017-11-07T05:37:01.499Z,4.11
2017-11-07T05:38:11.920Z,4.03
2017-11-07T05:39:22.068Z,4.12
2017-11-07T05:40:32.527Z,4.16
2017-11-07T05:41:42.964Z,4.11
2017-11-07T05:42:53.421Z,4.2
2017-11-07T05:44:03.948Z,4.22
2017-11-07T05:45:14.415Z,4.12
2017-11-07T05:46:24.872Z,4.2
2017-11-07T05:47:35.312Z,4.18
2017-11-07T05:48:45.771Z,4.2
2017-11-07T05:49:56.200Z,4.3
2017-11-07T05:51:06.666Z,4.28
2017-11-07T05:52:16.799Z,4.2
2017-11-07T05:53:27.229Z,4.3
2017-11-07T05:54:37.400Z,4.23
2017-11-07T05:55:47.843Z,4.34
2017-11-07T05:56:58.514Z,4.37
2017-11-07T05:58:08.962Z,4.36
2017-11-07T05:59:19.442Z,4.28
2017-11-07T06:00:30.037Z,4.34
2017-11-07T06:01:40.528Z,4.3
2017-11-07T06:02:50.966Z,4.36
2017-11-07T06:04:01.520Z,4.34
2017-11-07T06:05:12.174Z,4.33
2017-11-07T06:06:22.607Z,4.22
2017-11-07T06:07:33.142Z,4.28
2017-11-07T06:08:43.610Z,4.23
2017-11-07T06:09:54.175Z,4.2
2017-11-07T06:11:04.697Z,4.23
2017-11-07T06:12:14.811Z,4.25
2017-11-07T06:13:24.949Z,4.2
2017-11-07T06:14:35.469Z,4.23
2017-11-07T06:15:45.891Z,4.11
2017-11-07T06:16:56.124Z,4.23
2017-11-07T06:18:06.624Z,4.27
2017-11-07T06:19:17.051Z,4.25
2017-11-07T06:20:27.614Z,4.25
2017-11-07T06:21:38.033Z,4.27
2017-11-07T06:22:48.493Z,4.23
2017-11-07T06:23:58.933Z,4.19
2017-11-07T06:25:09.053Z,4.3
2017-11-07T06:26:20.481Z,4.33
2017-11-07T06:27:30.971Z,4.33
2017-11-07T06:28:41.425Z,4.3
2017-11-07T06:29:51.914Z,4.3
2017-11-07T06:31:02.387Z,4.3
2017-11-07T06:32:12.641Z,4.25
2017-11-07T06:33:23.134Z,4.2
2017-11-07T06:34:33.256Z,4.2
2017-11-07T06:35:43.404Z,4.27
2017-11-07T06:36:53.349Z,4.27
2017-11-07T06:38:03.874Z,4.25
2017-11-07T06:39:14.319Z,4.18
2017-11-07T06:40:24.783Z,4.19
2017-11-07T06:41:35.256Z,4.2
2017-11-07T06:42:45.784Z,4.22
2017-11-07T06:43:55.963Z,4.27
2017-11-07T06:45:06.133Z,4.3
2017-11-07T06:46:16.567Z,4.3
2017-11-07T06:47:27.096Z,4.34
2017-11-07T06:48:37.551Z,4.3
2017-11-07T06:49:48.125Z,4.19
2017-11-07T06:50:58.566Z,4.27
2017-11-07T06:52:09.031Z,4.18
2017-11-07T06:53:19.511Z,4.15
2017-11-07T06:54:30.009Z,4.22
2017-11-07T06:55:40.474Z,4.25
2017-11-07T06:56:50.481Z,4.23
2017-11-07T06:58:00.921Z,4.2
2017-11-07T06:59:11.380Z,4.2
2017-11-07T07:00:21.978Z,4.25
2017-11-07T07:01:32.408Z,4.23
2017-11-07T07:02:42.767Z,4.25
2017-11-07T07:03:53.254Z,4.25
2017-11-07T07:05:04.708Z,4.23
2017-11-07T07:06:15.143Z,4.28
2017-11-07T07:07:25.578Z,4.31
2017-11-07T07:08:36.103Z,4.25
2017-11-07T07:09:46.541Z,4.23
2017-11-07T07:10:56.977Z,4.19
2017-11-07T07:12:07.090Z,4.27
2017-11-07T07:13:17.583Z,4.34
2017-11-07T07:14:28.026Z,4.33
2017-11-07T07:15:38.747Z,4.34
2017-11-07T07:16:49.218Z,4.22
2017-11-07T07:17:59.667Z,4.31
2017-11-07T07:19:10.114Z,4.31
2017-11-07T07:20:20.665Z,4.23
2017-11-07T07:21:31.131Z,4.22
2017-11-07T07:22:41.592Z,4.27
2017-11-07T07:23:52.056Z,4.22
2017-11-07T07:25:02.542Z,4.18
2017-11-07T07:26:13.074Z,4.15
2017-11-07T07:27:23.698Z,4.16
2017-11-07T07:28:34.217Z,4.12
2017-11-07T07:29:44.682Z,4.12
2017-11-07T07:30:55.132Z,4.19
2017-11-07T07:32:05.567Z,4.19
2017-11-07T07:33:16.012Z,4.19
2017-11-07T07:34:26.484Z,4.27
2017-11-07T07:35:36.944Z,4.27
2017-11-07T07:36:47.399Z,4.31
2017-11-07T07:37:57.925Z,4.4
2017-11-07T07:39:08.385Z,4.3
2017-11-07T07:40:18.847Z,4.31
2017-11-07T07:41:29.295Z,4.34
2017-11-07T07:42:39.759Z,4.25
2017-11-07T07:43:50.192Z,4.36
2017-11-07T07:45:00.695Z,4.31
2017-11-07T07:46:11.142Z,4.38
2017-11-07T07:47:21.664Z,4.4
2017-11-07T07:48:32.102Z,4.41
2017-11-07T07:49:43.550Z,4.38
2017-11-07T07:50:53.988Z,4.4
2017-11-07T07:52:04.455Z,4.4
2017-11-07T07:53:15.008Z,4.46
2017-11-07T07:54:25.445Z,4.37
2017-11-07T07:55:36.038Z,4.4
2017-11-07T07:56:46.467Z,4.43
2017-11-07T07:57:57.180Z,4.41
2017-11-07T07:59:07.759Z,4.49
2017-11-07T08:00:18.204Z,4.41
2017-11-07T08:01:28.238Z,4.43
2017-11-07T08:02:38.736Z,4.4
2017-11-07T08:03:48.767Z,4.52
2017-11-07T08:04:58.943Z,4.55
2017-11-07T08:06:09.413Z,4.55
2017-11-07T08:07:19.872Z,4.6
2017-11-07T08:08:30.458Z,4.62
2017-11-07T08:09:40.884Z,4.55
2017-11-07T08:10:51.422Z,4.56
2017-11-07T08:12:02.076Z,4.57
2017-11-07T08:13:12.336Z,4.53
2017-11-07T08:14:22.780Z,4.6
2017-11-07T08:15:33.243Z,4.55
2017-11-07T08:16:43.395Z,4.56
2017-11-07T08:17:53.235Z,4.5
2017-11-07T08:19:03.702Z,4.53
2017-11-07T08:20:14.139Z,4.52
2017-11-07T08:21:24.293Z,4.56
2017-11-07T08:22:34.792Z,4.55
2017-11-07T08:23:45.258Z,4.67
2017-11-07T08:24:54.978Z,4.57
2017-11-07T08:26:05.413Z,4.7
2017-11-07T08:27:15.978Z,4.7
2017-11-07T08:28:27.486Z,4.63
2017-11-07T08:29:37.692Z,4.75
2017-11-07T08:30:48.143Z,4.74
2017-11-07T08:31:58.599Z,4.78
2017-11-07T08:33:09.108Z,4.88
2017-11-07T08:34:19.659Z,4.85
2017-11-07T08:35:30.116Z,4.74
2017-11-07T08:36:40.667Z,4.83
2017-11-07T08:37:50.875Z,4.85
2017-11-07T08:39:01.430Z,4.92
2017-11-07T08:40:11.914Z,4.93
2017-11-07T08:41:22.359Z,4.93
2017-11-07T08:42:33.402Z,4.81
2017-11-07T08:43:44.029Z,4.8
2017-11-07T08:44:54.527Z,4.73
2017-11-07T08:46:05.109Z,4.88
2017-11-07T08:47:15.149Z,4.85
2017-11-07T08:48:25.615Z,4.81
2017-11-07T08:49:36.070Z,4.93
2017-11-07T08:50:46.184Z,4.96
2017-11-07T08:51:56.675Z,5.08
2017-11-07T08:53:07.134Z,5.04
2017-11-07T08:54:17.566Z,5.04
2017-11-07T08:55:27.761Z,5.08
2017-11-07T08:56:38.331Z,5.03
2017-11-07T08:57:48.784Z,5.06
2017-11-07T08:58:59.260Z,5.18
2017-11-07T09:00:09.699Z,5.11
2017-11-07T09:01:20.203Z,5.18
2017-11-07T09:02:30.658Z,5.16
2017-11-07T09:03:41.167Z,5.13
2017-11-07T09:04:52.607Z,5.24
2017-11-07T09:06:03.079Z,5.22
2017-11-07T09:07:13.525Z,5.22
2017-11-07T09:08:24.007Z,5.24
2017-11-07T09:09:34.508Z,5.17
2017-11-07T09:10:45.908Z,5.18
2017-11-07T09:11:56.553Z,5.16
2017-11-07T09:13:07.130Z,5.26
2017-11-07T09:14:17.559Z,5.17
2017-11-07T09:15:28.086Z,5.22
2017-11-07T09:16:38.567Z,5.28
2017-11-07T09:17:49.024Z,5.18
2017-11-07T09:18:59.479Z,5.24
2017-11-07T09:20:09.939Z,5.17
2017-11-07T09:21:20.406Z,5.16
2017-11-07T09:22:30.933Z,5.29
2017-11-07T09:23:41.396Z,5.28
2017-11-07T09:24:51.849Z,5.36
2017-11-07T09:26:02.294Z,5.4
2017-11-07T09:27:12.442Z,5.41
2017-11-07T09:28:22.924Z,5.4
2017-11-07T09:29:32.932Z,5.36
2017-11-07T09:30:43.564Z,5.31
2017-11-07T09:31:54.099Z,5.29
2017-11-07T09:33:04.262Z,5.32
2017-11-07T09:34:14.719Z,5.25
2017-11-07T09:35:25.223Z,5.24
2017-11-07T09:36:35.682Z,5.31
2017-11-07T09:37:46.198Z,5.22
2017-11-07T09:38:56.307Z,5.14
2017-11-07T09:40:06.761Z,5.11
2017-11-07T09:41:17.255Z,5.11
2017-11-07T09:42:27.706Z,5.08
2017-11-07T09:43:38.183Z,5.08
2017-11-07T09:44:48.638Z,5.16
2017-11-07T09:45:59.084Z,5.24
2017-11-07T09:47:09.532Z,5.29
2017-11-07T09:48:20.010Z,5.26
2017-11-07T09:49:30.493Z,5.26
2017-11-07T09:50:41.090Z,5.25
2017-11-07T09:51:52.144Z,5.33
2017-11-07T09:53:02.623Z,5.38
2017-11-07T09:54:13.097Z,5.38
2017-11-07T09:55:23.620Z,5.4
2017-11-07T09:56:33.959Z,5.49
2017-11-07T09:57:44.104Z,5.44
2017-11-07T09:58:54.807Z,5.49
2017-11-07T10:00:05.298Z,5.54
2017-11-07T10:01:15.771Z,5.54
2017-11-07T10:02:25.899Z,5.61
2017-11-07T10:03:36.337Z,5.61
2017-11-07T10:04:46.852Z,5.67
2017-11-07T10:05:57.410Z,5.64
2017-11-07T10:07:07.866Z,5.68
2017-11-07T10:08:18.462Z,5.68
2017-11-07T10:09:28.935Z,5.71
2017-11-07T10:10:39.460Z,5.68
2017-11-07T10:11:49.918Z,5.72
2017-11-07T10:13:00.044Z,5.67
2017-11-07T10:14:10.617Z,5.65
2017-11-07T10:15:21.064Z,5.69
2017-11-07T10:16:31.183Z,5.71
2017-11-07T10:17:41.849Z,5.68
2017-11-07T10:18:52.470Z,5.68
2017-11-07T10:20:02.736Z,5.75
2017-11-07T10:21:13.186Z,5.74
2017-11-07T10:22:23.674Z,5.67
2017-11-07T10:23:34.153Z,5.58
2017-11-07T10:24:44.265Z,5.59
2017-11-07T10:25:54.778Z,5.59
2017-11-07T10:27:05.447Z,5.54
2017-11-07T10:28:15.900Z,5.56
2017-11-07T10:29:26.039Z,5.64
2017-11-07T10:30:36.730Z,5.71
2017-11-07T10:31:47.202Z,5.75
2017-11-07T10:32:57.678Z,5.8
2017-11-07T10:34:07.829Z,5.84
2017-11-07T10:35:18.280Z,5.82
2017-11-07T10:36:28.773Z,5.88
2017-11-07T10:37:39.228Z,5.88
2017-11-07T10:38:49.760Z,5.99
2017-11-07T10:40:00.301Z,6.11
2017-11-07T10:41:11.021Z,6.02
2017-11-07T10:42:21.578Z,6.16
2017-11-07T10:43:32.050Z,6.21
2017-11-07T10:44:42.513Z,6.17
2017-11-07T10:45:52.538Z,6.26
2017-11-07T10:47:02.665Z,6.31
2017-11-07T10:48:13.102Z,6.31
2017-11-07T10:49:23.175Z,6.3
2017-11-07T10:50:33.679Z,6.3
2017-11-07T10:51:44.124Z,6.17
2017-11-07T10:52:54.597Z,6.17
2017-11-07T10:54:05.126Z,6.12
2017-11-07T10:55:14.972Z,6.19
2017-11-07T10:56:25.452Z,6.16
2017-11-07T10:57:35.925Z,6.19
2017-11-07T10:58:46.427Z,6.14
2017-11-07T10:59:56.936Z,6.14
2017-11-07T11:01:07.373Z,6.16
2017-11-07T11:02:17.848Z,6.11
2017-11-07T11:03:28.116Z,6.2
2017-11-07T11:04:38.564Z,6.23
2017-11-07T11:05:48.929Z,6.23
2017-11-07T11:06:59.393Z,6.27
2017-11-07T11:08:09.969Z,6.36
2017-11-07T11:09:20.405Z,6.3
2017-11-07T11:10:30.960Z,6.34
2017-11-07T11:11:41.446Z,6.44
2017-11-07T11:12:51.954Z,6.41
2017-11-07T11:14:02.399Z,6.54
2017-11-07T11:15:12.865Z,6.45
2017-11-07T11:16:23.318Z,6.54
2017-11-07T11:17:33.798Z,6.49
2017-11-07T11:18:44.242Z,6.48
2017-11-07T11:19:54.756Z,6.57
2017-11-07T11:21:06.214Z,6.48
2017-11-07T11:22:16.667Z,6.42
2017-11-07T11:23:26.786Z,6.49
2017-11-07T11:24:37.354Z,6.46
2017-11-07T11:25:48.154Z,6.52
2017-11-07T11:26:58.617Z,6.44
2017-11-07T11:28:08.796Z,6.46
2017-11-07T11:29:19.485Z,6.49
2017-11-07T11:30:29.952Z,6.48
2017-11-07T11:31:40.385Z,6.52
2017-11-07T11:32:50.817Z,6.53
2017-11-07T11:34:00.941Z,6.44
2017-11-07T11:35:11.486Z,6.52
2017-11-07T11:36:21.753Z,6.46
2017-11-07T11:37:32.207Z,6.45
2017-11-07T11:38:42.332Z,6.42
2017-11-07T11:39:52.818Z,6.3
2017-11-07T11:41:03.307Z,6.23
2017-11-07T11:42:13.873Z,6.23
2017-11-07T11:43:24.391Z,6.26
2017-11-07T11:44:34.822Z,6.21
2017-11-07T11:45:45.290Z,6.23
2017-11-07T11:46:55.725Z,6.16
2017-11-07T11:48:06.287Z,6.26
2017-11-07T11:49:16.763Z,6.28
2017-11-07T11:50:27.291Z,6.3
2017-11-07T11:51:37.807Z,6.3
2017-11-07T11:52:47.909Z,6.27
2017-11-07T11:53:58.389Z,6.38
2017-11-07T11:55:08.834Z,6.31
2017-11-07T11:56:19.430Z,6.28
2017-11-07T11:57:29.966Z,6.42
2017-11-07T11:58:40.435Z,6.39
2017-11-07T11:59:50.994Z,6.52
2017-11-07T12:01:01.447Z,6.44
2017-11-07T12:02:11.982Z,6.54
2017-11-07T12:03:22.437Z,6.52
2017-11-07T12:04:32.918Z,6.44
2017-11-07T12:05:43.363Z,6.54
2017-11-07T12:06:53.572Z,6.59
2017-11-07T12:08:04.038Z,6.49
2017-11-07T12:09:14.737Z,6.54
2017-11-07T12:10:25.202Z,6.53
2017-11-07T12:11:35.763Z,6.56
2017-11-07T12:12:46.385Z,6.52
2017-11-07T12:13:56.825Z,6.46
2017-11-07T12:15:07.567Z,6.53
2017-11-07T12:16:18.029Z,6.49
2017-11-07T12:17:28.595Z,6.54
2017-11-07T12:18:39.123Z,6.53
2017-11-07T12:19:49.603Z,6.56
2017-11-07T12:21:00.064Z,6.52
2017-11-07T12:22:10.524Z,6.46
2017-11-07T12:23:20.998Z,6.54
2017-11-07T12:24:31.617Z,6.52
2017-11-07T12:25:42.318Z,6.57
2017-11-07T12:26:52.802Z,6.69
2017-11-07T12:28:03.365Z,6.59
2017-11-07T12:29:13.857Z,6.66
2017-11-07T12:30:24.205Z,6.64
2017-11-07T12:31:34.899Z,6.64
2017-11-07T12:32:45.353Z,6.63
2017-11-07T12:33:55.888Z,6.56
2017-11-07T12:35:06.011Z,6.49
2017-11-07T12:36:16.434Z,6.59
2017-11-07T12:37:26.706Z,6.54
2017-11-07T12:38:37.188Z,6.54
2017-11-07T12:39:47.638Z,6.59
2017-11-07T12:40:58.095Z,6.64
2017-11-07T12:42:08.137Z,6.63
2017-11-07T12:43:18.577Z,6.79
2017-11-07T12:44:28.715Z,6.84
2017-11-07T12:45:39.376Z,6.84
2017-11-07T12:46:50.151Z,6.9
2017-11-07T12:48:00.623Z,6.99
2017-11-07T12:49:11.120Z,7.03
2017-11-07T12:50:21.570Z,7.03
2017-11-07T12:51:32.129Z,7.1
2017-11-07T12:52:42.610Z,7.15
2017-11-07T12:53:53.098Z,7.15
2017-11-07T12:55:03.657Z,7.15
2017-11-07T12:56:15.070Z,7.14
2017-11-07T12:57:25.114Z,7.11
2017-11-07T12:58:35.604Z,7.06
2017-11-07T12:59:46.364Z,7.06
2017-11-07T13:00:56.838Z,6.97
2017-11-07T13:02:07.284Z,6.99
2017-11-07T13:03:17.737Z,6.99
2017-11-07T13:04:28.217Z,6.96
2017-11-07T13:05:39.665Z,6.99
2017-11-07T13:06:49.822Z,6.87
2017-11-07T13:08:00.284Z,6.96
2017-11-07T13:09:10.736Z,6.93
2017-11-07T13:10:21.185Z,6.92
2017-11-07T13:11:32.656Z,6.87
2017-11-07T13:12:42.783Z,6.93
2017-11-07T13:13:52.792Z,6.93
2017-11-07T13:15:03.249Z,6.92
2017-11-07T13:16:13.261Z,6.87
2017-11-07T13:17:23.931Z,6.95
2017-11-07T13:18:34.390Z,7
2017-11-07T13:19:44.712Z,6.96
2017-11-07T13:20:55.170Z,7.06
2017-11-07T13:22:05.747Z,7.08
2017-11-07T13:23:16.212Z,7.02
2017-11-07T13:24:26.649Z,7.08
2017-11-07T13:25:37.125Z,7.2
2017-11-07T13:26:47.280Z,7.11
2017-11-07T13:27:57.823Z,7.11
2017-11-07T13:29:08.257Z,7.11
2017-11-07T13:30:18.693Z,7.22
2017-11-07T13:31:29.129Z,7.1
2017-11-07T13:32:39.625Z,7.11
2017-11-07T13:33:50.097Z,7.17
2017-11-07T13:35:00.564Z,7.22
2017-11-07T13:36:11.037Z,7.2
2017-11-07T13:37:21.493Z,7.14
2017-11-07T13:38:31.957Z,7.11
2017-11-07T13:39:42.135Z,7.15
2017-11-07T13:40:52.375Z,7.13
2017-11-07T13:42:02.836Z,7.15
2017-11-07T13:43:13.282Z,7.1
2017-11-07T13:44:23.828Z,7.18
2017-11-07T13:45:34.287Z,7.13
2017-11-07T13:46:44.732Z,7.1
2017-11-07T13:47:55.194Z,7
2017-11-07T13:49:05.640Z,6.99
2017-11-07T13:50:15.469Z,7.06
2017-11-07T13:51:26.305Z,7.08
2017-11-07T13:52:36.782Z,7
2017-11-07T13:53:47.229Z,7.11
2017-11-07T13:54:57.971Z,7.1
2017-11-07T13:56:08.419Z,7.06
2017-11-07T13:57:19.141Z,7.03
2017-11-07T13:58:29.588Z,6.96
2017-11-07T13:59:40.054Z,6.99
2017-11-07T14:00:50.609Z,6.92
2017-11-07T14:02:01.074Z,6.93
2017-11-07T14:03:11.672Z,6.92
2017-11-07T14:04:22.310Z,6.89
2017-11-07T14:05:32.759Z,6.9
2017-11-07T14:06:43.331Z,6.96
2017-11-07T14:07:53.788Z,6.96
2017-11-07T14:09:04.246Z,6.95
2017-11-07T14:10:14.743Z,6.96
2017-11-07T14:11:24.846Z,6.96
2017-11-07T14:12:35.494Z,6.99
2017-11-07T14:13:45.951Z,6.93
2017-11-07T14:14:56.395Z,6.99
2017-11-07T14:16:06.854Z,6.96
2017-11-07T14:17:17.329Z,6.9
2017-11-07T14:18:28.027Z,6.95
2017-11-07T14:19:38.548Z,7.02
2017-11-07T14:20:49.023Z,6.95
2017-11-07T14:21:59.476Z,7.1
2017-11-07T14:23:09.945Z,7.08
2017-11-07T14:24:19.978Z,7.02
2017-11-07T14:25:30.427Z,7
2017-11-07T14:26:41.010Z,7.02
2017-11-07T14:27:51.499Z,7.11
2017-11-07T14:29:02.223Z,7
2017-11-07T14:30:12.686Z,7
2017-11-07T14:31:23.136Z,7.08
2017-11-07T14:32:33.599Z,7.05
2017-11-07T14:33:44.095Z,7.03
2017-11-07T14:34:54.581Z,6.99
2017-11-07T14:36:05.085Z,6.97
2017-11-07T14:37:15.532Z,6.9
2017-11-07T14:38:26.050Z,6.95
2017-11-07T14:39:36.514Z,6.82
2017-11-07T14:40:46.658Z,6.84
2017-11-07T14:41:57.108Z,6.82
2017-11-07T14:43:07.557Z,6.74
2017-11-07T14:44:19.000Z,6.75
2017-11-07T14:45:29.439Z,6.72
2017-11-07T14:46:39.607Z,6.78
2017-11-07T14:47:50.315Z,6.78
2017-11-07T14:49:00.539Z,6.72
2017-11-07T14:50:10.987Z,6.63
2017-11-07T14:51:21.529Z,6.62
2017-11-07T14:52:31.989Z,6.64
2017-11-07T14:53:42.480Z,6.63
2017-11-07T14:54:52.934Z,6.64
2017-11-07T14:56:03.426Z,6.54
2017-11-07T14:57:13.574Z,6.66
2017-11-07T14:58:24.049Z,6.63
2017-11-07T14:59:34.738Z,6.53
2017-11-07T15:00:45.266Z,6.48
2017-11-07T15:01:55.445Z,6.56
2017-11-07T15:03:05.502Z,6.6
2017-11-07T15:04:15.941Z,6.62
2017-11-07T15:05:26.443Z,6.52
2017-11-07T15:06:36.601Z,6.57
2017-11-07T15:07:47.066Z,6.44
2017-11-07T15:08:57.536Z,6.53
2017-11-07T15:10:07.987Z,6.54
2017-11-07T15:11:18.450Z,6.53
2017-11-07T15:12:29.093Z,6.54
2017-11-07T15:13:39.551Z,6.54
2017-11-07T15:14:50.201Z,6.45
2017-11-07T15:16:00.684Z,6.57
2017-11-07T15:17:11.260Z,6.52
2017-11-07T15:18:21.744Z,6.48
2017-11-07T15:19:32.292Z,6.53
2017-11-07T15:20:42.667Z,6.41
2017-11-07T15:21:53.160Z,6.35
2017-11-07T15:23:03.657Z,6.3
2017-11-07T15:24:14.147Z,6.3
2017-11-07T15:25:24.620Z,6.35
2017-11-07T15:26:34.755Z,6.27
2017-11-07T15:27:45.221Z,6.3
2017-11-07T15:28:55.670Z,6.34
2017-11-07T15:30:06.136Z,6.31
2017-11-07T15:31:16.612Z,6.36
2017-11-07T15:32:27.055Z,6.31
2017-11-07T15:33:37.024Z,6.34
2017-11-07T15:34:47.215Z,6.26
2017-11-07T15:35:57.741Z,6.26
2017-11-07T15:37:07.796Z,6.26
2017-11-07T15:38:18.274Z,6.31
2017-11-07T15:39:28.735Z,6.3
2017-11-07T15:40:39.173Z,6.28
2017-11-07T15:41:49.206Z,6.31